Time;durP1;ratioP1;P1;durP2;ratioP2;P2;SDS_P1;SDS_P2;PMS_P1;PMS_P2;Temp;Humidity;BMP_temperature;BMP_pressure;BME280_temperature;BME280_humidity;BME280_pressure;Samples;Min_cycle;Max_cycle;Signal;HPM_P1;HPM_P2
2024/03/19 00:00:21;;;;;;;1.75;1.52;;;;;;;6.50;100.00;93121.19;2024962;28;20909;-85
2024/03/19 00:01:22;;;;;;;1.48;1.38;;;;;;;6.45;100.00;93118.94;2023542;28;20105;-83
2024/03/19 00:02:23;;;;;;;3.53;1.65;;;;;;;6.43;100.00;93123.13;2042217;28;20128;-83
2024/03/19 00:03:24;;;;;;;2.75;1.50;;;;;;;6.41;100.00;93115.56;2052597;27;20028;-84
2024/03/19 00:04:25;;;;;;;2.22;1.58;;;;;;;6.31;100.00;93117.13;2060998;27;20027;-84
2024/03/19 00:05:26;;;;;;;1.65;1.55;;;;;;;6.33;100.00;93113.34;2058942;28;20047;-82
2024/03/19 00:06:27;;;;;;;1.75;1.58;;;;;;;6.35;100.00;93119.00;2063333;28;20118;-82
2024/03/19 00:07:28;;;;;;;2.22;1.67;;;;;;;6.41;100.00;93112.91;2073607;28;20038;-84
2024/03/19 00:08:29;;;;;;;1.88;1.65;;;;;;;6.37;100.00;93112.16;2093982;28;20122;-83
2024/03/19 00:09:30;;;;;;;1.63;1.30;;;;;;;6.25;100.00;93108.06;2021205;28;20032;-82
2024/03/19 00:10:31;;;;;;;2.47;1.30;;;;;;;6.37;100.00;93112.16;2014376;28;20032;-80
2024/03/19 00:11:32;;;;;;;5.75;1.40;;;;;;;6.39;100.00;93109.88;2026476;28;20028;-84
2024/03/19 00:12:33;;;;;;;1.98;1.70;;;;;;;6.12;100.00;93111.53;2021053;28;21009;-82
2024/03/19 00:13:34;;;;;;;1.60;1.42;;;;;;;6.23;100.00;93114.88;2028384;28;20158;-85
2024/03/19 00:14:35;;;;;;;2.58;1.52;;;;;;;6.20;100.00;93105.81;2031416;28;20028;-84
2024/03/19 00:15:36;;;;;;;4.10;1.63;;;;;;;6.19;100.00;93109.63;2032692;28;21678;-85
2024/03/19 00:16:37;;;;;;;1.60;1.13;;;;;;;6.23;100.00;93115.66;2041557;28;20067;-85
2024/03/19 00:17:39;;;;;;;24.40;1.80;;;;;;;6.27;100.00;93105.00;2044372;28;20187;-85
2024/03/19 00:18:40;;;;;;;1.48;1.20;;;;;;;6.30;100.00;93107.66;2049877;28;20028;-81
2024/03/19 00:19:42;;;;;;;2.42;1.50;;;;;;;6.10;100.00;93105.84;2061252;28;20032;-84
2024/03/19 00:20:43;;;;;;;4.43;2.00;;;;;;;6.16;100.00;93112.28;2072912;27;20050;-84
2024/03/19 00:21:44;;;;;;;1.40;1.30;;;;;;;6.17;100.00;93113.78;2070437;28;20047;-85
2024/03/19 00:22:45;;;;;;;1.60;1.50;;;;;;;6.13;100.00;93113.06;2077078;28;20119;-83
2024/03/19 00:23:46;;;;;;;2.13;1.63;;;;;;;6.09;100.00;93110.41;2087270;28;20028;-84
2024/03/19 00:24:48;;;;;;;2.35;1.63;;;;;;;6.17;100.00;93114.53;2100983;28;20096;-83
2024/03/19 00:25:49;;;;;;;1.35;1.25;;;;;;;6.12;100.00;93111.53;2108708;27;20032;-83
2024/03/19 00:26:50;;;;;;;2.83;1.70;;;;;;;6.12;100.00;93107.00;2114432;27;20070;-82
2024/03/19 00:27:52;;;;;;;3.60;1.45;;;;;;;6.14;100.00;93107.34;2100841;27;20088;-83
2024/03/19 00:28:53;;;;;;;1.40;1.30;;;;;;;6.03;100.00;93101.34;2104216;28;20472;-83
2024/03/19 00:29:54;;;;;;;1.60;1.30;;;;;;;5.91;100.00;93109.72;2093453;28;20020;-82
2024/03/19 00:30:55;;;;;;;1.48;1.38;;;;;;;5.92;100.00;93104.03;2098886;28;20223;-82
2024/03/19 00:31:56;;;;;;;1.60;1.50;;;;;;;5.85;100.00;93105.97;2106136;28;20056;-82
2024/03/19 00:32:57;;;;;;;2.35;1.20;;;;;;;5.83;100.00;93103.69;2099048;28;20025;-81
2024/03/19 00:33:58;;;;;;;1.98;1.42;;;;;;;5.82;100.00;93102.16;2101648;28;20027;-83
2024/03/19 00:34:59;;;;;;;2.47;1.52;;;;;;;5.91;100.00;93107.81;2099807;28;20494;-84
2024/03/19 00:36:00;;;;;;;2.28;1.50;;;;;;;5.92;100.00;93096.09;2106079;28;20061;-84
2024/03/19 00:37:01;;;;;;;2.63;1.40;;;;;;;5.77;100.00;93099.91;2114617;28;20016;-85
2024/03/19 00:38:04;;;;;;;1.40;1.30;;;;;;;5.89;100.00;93099.50;2106225;28;20023;-83
2024/03/19 00:39:10;;;;;;;3.50;1.58;;;;;;;5.72;100.00;93095.03;2101706;28;20487;-82
2024/03/19 00:40:11;;;;;;;1.70;1.40;;;;;;;5.72;100.00;93101.06;2107004;27;20419;-84
2024/03/19 00:41:12;;;;;;;1.50;1.40;;;;;;;5.73;100.00;93101.81;2104811;28;20024;-85
2024/03/19 00:42:13;;;;;;;2.05;1.50;;;;;;;5.78;100.00;93094.22;2106109;28;20358;-83
2024/03/19 00:43:14;;;;;;;1.48;1.30;;;;;;;5.86;100.00;93097.59;2097631;28;20124;-84
2024/03/19 00:44:15;;;;;;;1.90;1.50;;;;;;;5.90;100.00;93098.34;2104022;28;20024;-85
2024/03/19 00:45:17;;;;;;;1.33;1.23;;;;;;;5.90;100.00;93093.03;2101348;28;20055;-83
2024/03/19 00:46:19;;;;;;;2.00;1.38;;;;;;;5.82;100.00;93104.81;2114593;27;20023;-83
2024/03/19 00:47:19;;;;;;;1.60;1.20;;;;;;;5.70;100.00;93103.34;2102207;28;20078;-84
2024/03/19 00:48:21;;;;;;;2.92;1.30;;;;;;;5.89;100.00;93098.75;2097487;28;20408;-83
2024/03/19 00:49:22;;;;;;;1.50;1.40;;;;;;;5.75;100.00;93108.28;2098395;28;20073;-84
2024/03/19 00:50:22;;;;;;;1.50;1.40;;;;;;;5.79;100.00;93101.06;2097775;28;20042;-87
2024/03/19 00:51:24;;;;;;;1.40;1.30;;;;;;;5.77;100.00;93103.31;2096932;28;20373;-85
2024/03/19 00:52:25;;;;;;;2.20;1.25;;;;;;;5.86;100.00;93094.19;2096315;28;20025;-81
2024/03/19 00:53:27;;;;;;;2.42;1.30;;;;;;;5.84;100.00;93099.91;2098419;28;20021;-86
2024/03/19 00:54:28;;;;;;;1.38;1.27;;;;;;;5.77;100.00;93097.28;2096087;28;20055;-84
2024/03/19 00:55:29;;;;;;;1.60;1.23;;;;;;;5.73;100.00;93096.53;2106323;28;20441;-83
2024/03/19 00:56:30;;;;;;;1.50;1.40;;;;;;;5.73;100.00;93101.81;2106204;28;20024;-83
2024/03/19 00:57:32;;;;;;;3.00;1.38;;;;;;;5.84;100.00;93089.28;2097740;28;20017;-84
2024/03/19 00:58:33;;;;;;;1.98;1.13;;;;;;;5.91;100.00;93093.78;2101999;28;20480;-83
2024/03/19 00:59:34;;;;;;;1.20;1.10;;;;;;;5.93;100.00;93102.16;2103755;28;20031;-83
2024/03/19 01:00:35;;;;;;;1.45;1.13;;;;;;;5.83;100.00;93098.38;2097959;28;20092;-82
2024/03/19 01:01:36;;;;;;;1.45;1.20;;;;;;;5.76;100.00;93096.53;2095248;28;20033;-82
2024/03/19 01:02:41;;;;;;;1.80;1.10;;;;;;;5.78;100.00;93096.88;2101682;28;20469;-83
2024/03/19 01:03:42;;;;;;;1.35;1.23;;;;;;;5.76;100.00;93093.88;2105737;27;20043;-81
2024/03/19 01:04:43;;;;;;;4.80;1.17;;;;;;;5.79;100.00;93094.97;2114463;28;20027;-81
2024/03/19 01:05:44;;;;;;;3.83;1.30;;;;;;;5.72;100.00;93093.13;2103317;28;20069;-83
2024/03/19 01:06:45;;;;;;;3.42;1.55;;;;;;;5.68;100.00;93086.31;2097009;28;20174;-83
2024/03/19 01:07:47;;;;;;;4.13;1.40;;;;;;;5.68;100.00;93092.38;2094712;28;20044;-84
2024/03/19 01:08:48;;;;;;;2.30;1.70;;;;;;;5.61;100.00;93086.34;2104074;28;20090;-83
2024/03/19 01:09:49;;;;;;;11.93;1.60;;;;;;;5.45;100.00;93098.13;2102754;28;20491;-84
2024/03/19 01:10:50;;;;;;;33.75;1.83;;;;;;;5.41;100.00;93088.69;2120710;27;20375;-83
2024/03/19 01:11:51;;;;;;;9.77;1.65;;;;;;;5.47;100.00;93092.44;2112227;28;20066;-84
2024/03/19 01:12:52;;;;;;;34.78;1.58;;;;;;;5.49;100.00;93092.84;2112121;28;20062;-82
2024/03/19 01:13:53;;;;;;;10.93;1.35;;;;;;;5.55;100.00;93086.75;2112219;28;20141;-82
2024/03/19 01:14:55;;;;;;;35.30;2.03;;;;;;;5.36;100.00;93092.47;2120191;27;20019;-83
2024/03/19 01:15:56;;;;;;;33.20;1.67;;;;;;;5.33;100.00;93090.59;2112780;27;20016;-84
2024/03/19 01:16:57;;;;;;;27.67;1.52;;;;;;;5.47;100.00;93095.09;2110445;28;20083;-82
2024/03/19 01:17:59;;;;;;;55.25;2.10;;;;;;;5.38;100.00;93094.75;2111986;28;20066;-82
2024/03/19 01:19:00;;;;;;;78.00;2.30;;;;;;;5.45;100.00;93094.72;2107301;28;20020;-84
2024/03/19 01:20:09;;;;;;;73.82;2.42;;;;;;;5.48;100.00;93094.69;2094721;28;20374;-82
2024/03/19 01:21:10;;;;;;;26.60;1.63;;;;;;;5.58;100.00;93089.78;2099563;28;20031;-84
2024/03/19 01:22:11;;;;;;;57.60;2.22;;;;;;;5.50;100.00;93094.34;2097193;28;20028;-83
2024/03/19 01:23:12;;;;;;;32.97;1.58;;;;;;;5.55;100.00;93102.66;2110940;28;20111;-82
2024/03/19 01:24:13;;;;;;;28.50;1.25;;;;;;;5.63;100.00;93092.03;2099704;28;20020;-84
2024/03/19 01:25:14;;;;;;;10.85;1.15;;;;;;;5.51;100.00;93088.66;2103627;28;20467;-86
2024/03/19 01:26:15;;;;;;;15.32;1.33;;;;;;;5.64;100.00;93088.22;2103875;28;20024;-85
2024/03/19 01:27:16;;;;;;;22.08;1.83;;;;;;;5.44;100.00;93086.00;2103510;28;20036;-83
2024/03/19 01:28:18;;;;;;;51.15;1.80;;;;;;;5.14;100.00;93086.47;2102635;28;20078;-80
2024/03/19 01:29:19;;;;;;;37.90;1.63;;;;;;;5.17;100.00;93091.00;2101840;28;20537;-82
2024/03/19 01:30:21;;;;;;;23.00;1.35;;;;;;;5.29;100.00;93087.19;2093846;28;20016;-82
2024/03/19 01:31:22;;;;;;;10.75;0.98;;;;;;;5.40;100.00;93084.50;2107705;27;20098;-82
2024/03/19 01:32:23;;;;;;;22.00;1.30;;;;;;;5.28;100.00;93083.78;2113364;28;20750;-83
2024/03/19 01:33:24;;;;;;;22.25;1.30;;;;;;;5.38;100.00;93082.25;2110358;28;20111;-85
2024/03/19 01:34:25;;;;;;;33.30;1.40;;;;;;;5.30;100.00;93084.16;2109355;28;20028;-83
2024/03/19 01:35:26;;;;;;;35.25;2.53;;;;;;;5.34;100.00;93084.16;2109938;28;20011;-83
2024/03/19 01:36:27;;;;;;;25.58;1.30;;;;;;;5.26;100.00;93080.00;2103655;28;20485;-82
2024/03/19 01:37:28;;;;;;;35.95;2.58;;;;;;;5.13;100.00;93086.84;2094538;28;20021;-83
2024/03/19 01:38:29;;;;;;;26.70;1.55;;;;;;;5.32;100.00;93081.13;2093379;28;20048;-82
2024/03/19 01:39:32;;;;;;;38.42;1.60;;;;;;;5.29;100.00;93076.59;2102726;28;20432;-81
2024/03/19 01:40:33;;;;;;;7.18;1.10;;;;;;;5.36;100.00;93081.88;2099997;28;20618;-82
2024/03/19 01:41:34;;;;;;;28.48;1.85;;;;;;;5.45;100.00;93087.53;2093170;28;20068;-85
2024/03/19 01:42:35;;;;;;;13.20;1.20;;;;;;;5.41;100.00;93084.13;2096896;28;20039;-86
2024/03/19 01:43:36;;;;;;;25.45;1.40;;;;;;;5.40;100.00;93081.84;2100410;28;20028;-83
2024/03/19 01:44:37;;;;;;;19.27;1.25;;;;;;;5.41;100.00;93086.03;2104566;28;20074;-86
2024/03/19 01:45:38;;;;;;;14.60;1.10;;;;;;;5.35;100.00;93087.53;2098144;28;20430;-84
2024/03/19 01:46:39;;;;;;;48.53;1.70;;;;;;;5.43;100.00;93081.84;2106026;28;20034;-86
2024/03/19 01:47:42;;;;;;;19.10;1.40;;;;;;;5.40;100.00;93079.19;2103735;28;20494;-86
2024/03/19 01:48:43;;;;;;;8.75;1.30;;;;;;;5.29;100.00;93077.34;2104481;28;20030;-84
2024/03/19 01:49:44;;;;;;;13.75;1.35;;;;;;;5.43;100.00;93063.28;2097088;28;20401;-86
2024/03/19 01:50:45;;;;;;;2.13;1.08;;;;;;;5.54;100.00;93082.56;2095381;28;20091;-85
2024/03/19 01:51:46;;;;;;;2.17;1.00;;;;;;;5.49;100.00;93074.28;2104520;28;20487;-86
2024/03/19 01:52:50;;;;;;;6.13;1.00;;;;;;;5.38;100.00;93074.28;2102279;28;20078;-87
2024/03/19 01:53:55;;;;;;;2.20;1.00;;;;;;;5.38;100.00;93078.84;2097151;28;20062;-86
2024/03/19 01:54:56;;;;;;;1.83;1.15;;;;;;;5.25;100.00;93075.84;2106038;28;20119;-85
2024/03/19 01:55:57;;;;;;;2.35;1.10;;;;;;;5.41;100.00;93072.78;2111862;28;20020;-84
2024/03/19 01:56:58;;;;;;;3.13;0.80;;;;;;;5.35;100.00;93071.66;2113314;27;20488;-85
2024/03/19 01:57:59;;;;;;;1.20;1.10;;;;;;;5.27;100.00;93081.53;2105656;28;20016;-88
2024/03/19 01:59:00;;;;;;;1.20;1.10;;;;;;;5.13;100.00;93079.63;2097271;28;20016;-85
2024/03/19 02:00:04;;;;;;;0.98;0.90;;;;;;;5.05;100.00;93078.16;2101287;28;20370;-86
2024/03/19 02:01:05;;;;;;;2.00;1.05;;;;;;;5.16;100.00;93078.13;2100224;28;20495;-87
2024/03/19 02:02:06;;;;;;;1.40;1.10;;;;;;;5.18;100.00;93084.56;2095041;28;20036;-85
2024/03/19 02:03:07;;;;;;;1.30;1.20;;;;;;;5.17;100.00;93079.63;2096134;28;20384;-86
2024/03/19 02:04:09;;;;;;;3.20;1.35;;;;;;;5.17;100.00;93079.63;2101422;28;20016;-85
2024/03/19 02:06:05;;;;;;;6.45;1.30;;;;;;;5.03;100.00;93089.13;2101462;28;20020;-87
2024/03/19 02:07:06;;;;;;;2.10;1.02;;;;;;;5.08;100.00;93081.94;2119734;27;20458;-85
2024/03/19 02:08:07;;;;;;;0.93;0.90;;;;;;;5.08;100.00;93082.69;2113916;28;20078;-83
2024/03/19 02:09:12;;;;;;;2.33;1.02;;;;;;;5.21;100.00;93081.16;2107158;28;20107;-85
2024/03/19 02:10:13;;;;;;;1.58;1.10;;;;;;;5.27;100.00;93084.19;2118546;27;20015;-84
2024/03/19 02:11:14;;;;;;;1.30;1.20;;;;;;;5.28;100.00;93083.78;2111382;28;20019;-86
2024/03/19 02:12:15;;;;;;;1.38;1.10;;;;;;;5.37;100.00;93083.38;2105405;28;20155;-84
2024/03/19 02:13:16;;;;;;;1.50;1.40;;;;;;;5.36;100.00;93081.13;2094216;28;20028;-86
2024/03/19 02:14:18;;;;;;;1.40;1.30;;;;;;;5.36;100.00;93079.22;2098637;28;20024;-84
2024/03/19 02:15:19;;;;;;;1.75;1.40;;;;;;;5.33;100.00;93072.03;2101844;28;20020;-85
2024/03/19 02:16:20;;;;;;;3.50;1.40;;;;;;;5.21;100.00;93070.53;2101143;28;20029;-86
2024/03/19 02:17:22;;;;;;;4.63;1.40;;;;;;;5.34;100.00;93070.91;2093461;28;20025;-84
2024/03/19 02:18:23;;;;;;;15.50;1.50;;;;;;;5.33;100.00;93073.94;2101656;28;20012;-86
2024/03/19 02:19:24;;;;;;;13.32;1.25;;;;;;;5.47;100.00;93068.59;2095768;28;20016;-85
2024/03/19 02:20:25;;;;;;;2.35;1.00;;;;;;;5.41;100.00;93070.13;2104730;28;20048;-86
2024/03/19 02:21:27;;;;;;;11.32;1.23;;;;;;;5.45;100.00;93068.97;2100490;28;20020;-84
2024/03/19 02:22:28;;;;;;;7.88;1.25;;;;;;;5.40;100.00;93071.25;2096625;28;20024;-83
2024/03/19 02:23:29;;;;;;;15.63;1.27;;;;;;;5.26;100.00;93064.84;2094850;28;20299;-86
2024/03/19 02:24:30;;;;;;;8.13;1.40;;;;;;;5.08;100.00;93068.69;2104817;28;20031;-85
2024/03/19 02:27:16;;;;;;;;;;;;;;;3.84;100.00;93078.84;2141710;27;20438;-85
2024/03/19 02:28:17;;;;;;;4.95;1.40;;;;;;;3.84;100.00;93078.84;2119332;27;19911;-84
2024/03/19 02:29:18;;;;;;;8.20;1.25;;;;;;;3.86;100.00;93076.56;2114288;27;20063;-83
2024/03/19 02:30:19;;;;;;;4.25;1.50;;;;;;;3.96;100.00;93081.13;2122974;27;20019;-84
2024/03/19 02:31:24;;;;;;;2.53;1.30;;;;;;;3.86;100.00;93076.56;2110623;28;20456;-83
2024/03/19 02:32:25;;;;;;;13.20;1.45;;;;;;;3.78;100.00;93075.78;2115138;27;20123;-83
2024/03/19 02:33:26;;;;;;;1.35;1.25;;;;;;;3.99;100.00;93071.69;2115515;27;20035;-82
2024/03/19 02:34:27;;;;;;;7.00;1.45;;;;;;;3.95;100.00;93069.06;2101822;28;20036;-82
2024/03/19 02:35:28;;;;;;;1.30;1.20;;;;;;;4.06;100.00;93073.59;2100242;28;20405;-85
2024/03/19 02:36:29;;;;;;;8.20;1.30;;;;;;;4.02;100.00;93068.28;2112621;28;20020;-81
2024/03/19 02:37:30;;;;;;;16.00;1.60;;;;;;;4.12;100.00;93064.16;2106233;28;20805;-81
2024/03/19 02:38:31;;;;;;;24.48;1.88;;;;;;;4.11;100.00;93065.28;2104224;28;20028;-81
2024/03/19 02:39:32;;;;;;;7.07;1.33;;;;;;;4.10;100.00;93072.47;2120371;27;20023;-83
2024/03/19 02:40:32;;;;;;;36.17;1.92;;;;;;;4.23;100.00;93072.88;2114706;28;20455;-82
2024/03/19 02:41:33;;;;;;;9.40;1.65;;;;;;;4.21;100.00;93061.91;2106166;28;20035;-84
2024/03/19 02:42:34;;;;;;;19.42;1.58;;;;;;;4.21;100.00;93053.97;2104074;28;20047;-85
2024/03/19 02:43:39;;;;;;;68.28;2.55;;;;;;;4.21;100.00;93056.59;2115445;27;20420;-83
2024/03/19 02:44:40;;;;;;;8.57;1.40;;;;;;;4.28;100.00;93059.28;2106844;28;20032;-81
2024/03/19 02:45:41;;;;;;;74.57;2.40;;;;;;;4.20;100.00;93061.16;2112401;28;20024;-83
2024/03/19 02:46:42;;;;;;;71.45;2.67;;;;;;;4.28;100.00;93053.97;2105752;28;20124;-84
2024/03/19 02:47:43;;;;;;;79.32;2.15;;;;;;;4.23;100.00;93060.41;2112589;27;20030;-85
2024/03/19 02:48:44;;;;;;;68.93;2.42;;;;;;;4.42;100.00;93059.28;2114646;28;20068;-83
2024/03/19 02:49:45;;;;;;;64.35;2.97;;;;;;;4.41;100.00;93055.13;2108015;28;20021;-83
2024/03/19 02:50:46;;;;;;;80.30;2.53;;;;;;;4.37;100.00;93057.00;2113773;28;20031;-82
2024/03/19 02:51:47;;;;;;;70.72;2.38;;;;;;;4.26;100.00;93057.00;2114603;28;20015;-85
2024/03/19 02:52:48;;;;;;;110.82;2.60;;;;;;;4.29;100.00;93066.81;2116915;27;20034;-83
2024/03/19 02:53:49;;;;;;;81.30;2.10;;;;;;;4.22;100.00;93060.78;2106260;28;20020;-83
2024/03/19 02:54:50;;;;;;;52.50;1.60;;;;;;;4.19;100.00;93064.94;2114657;28;20358;-83
2024/03/19 02:55:52;;;;;;;60.40;1.63;;;;;;;4.34;100.00;93064.94;2107503;28;20032;-83
2024/03/19 02:56:53;;;;;;;47.90;1.48;;;;;;;4.38;100.00;93063.81;2100086;28;20009;-84
2024/03/19 02:57:54;;;;;;;52.42;1.52;;;;;;;4.37;100.00;93061.53;2096452;28;20373;-83
2024/03/19 02:58:56;;;;;;;48.00;1.50;;;;;;;4.23;100.00;93072.88;2108183;28;20122;-82
2024/03/19 02:59:57;;;;;;;40.47;1.27;;;;;;;4.27;100.00;93076.28;2098073;28;20020;-84
2024/03/19 03:00:58;;;;;;;40.08;1.50;;;;;;;4.17;100.00;93071.72;2101012;28;20020;-82
2024/03/19 03:01:59;;;;;;;3.83;0.68;;;;;;;4.12;100.00;93067.56;2105616;28;20480;-82
2024/03/19 03:03:00;;;;;;;34.92;1.23;;;;;;;4.13;100.00;93063.78;2114959;28;20376;-85
2024/03/19 03:04:01;;;;;;;15.90;0.90;;;;;;;4.11;100.00;93067.94;2117272;27;20067;-83
2024/03/19 03:05:02;;;;;;;6.25;0.70;;;;;;;3.95;100.00;93069.06;2116070;27;20023;-82
2024/03/19 03:06:03;;;;;;;31.40;1.30;;;;;;;4.01;100.00;93072.06;2108410;28;20073;-82
2024/03/19 03:07:04;;;;;;;39.05;1.38;;;;;;;4.09;100.00;93070.22;2097786;28;20028;-84
2024/03/19 03:08:05;;;;;;;38.38;1.23;;;;;;;4.06;100.00;93068.31;2111758;28;20388;-82
2024/03/19 03:09:08;;;;;;;37.25;1.10;;;;;;;4.07;100.00;93069.81;2110407;28;20476;-83
2024/03/19 03:10:09;;;;;;;39.13;1.30;;;;;;;3.85;100.00;93069.75;2106102;28;20024;-81
2024/03/19 03:11:10;;;;;;;14.93;0.68;;;;;;;3.91;100.00;93073.56;2108013;28;20024;-82
2024/03/19 03:12:11;;;;;;;25.73;0.93;;;;;;;3.96;100.00;93064.50;2097844;28;20413;-81
2024/03/19 03:13:12;;;;;;;29.33;1.30;;;;;;;3.85;100.00;93072.41;2106067;28;20023;-82
2024/03/19 03:14:13;;;;;;;16.75;0.85;;;;;;;3.70;100.00;93068.22;2105229;28;20024;-85
2024/03/19 03:15:14;;;;;;;22.27;1.00;;;;;;;3.77;100.00;93073.50;2104123;27;20016;-84
2024/03/19 03:16:15;;;;;;;15.40;0.80;;;;;;;3.78;100.00;93075.03;2119645;27;20107;-85
2024/03/19 03:17:16;;;;;;;15.05;0.90;;;;;;;3.75;100.00;93070.50;2118789;28;20467;-84
2024/03/19 03:18:17;;;;;;;21.15;1.00;;;;;;;3.61;100.00;93079.13;2122832;27;20103;-83
2024/03/19 03:19:18;;;;;;;10.30;1.90;;;;;;;3.40;100.00;93066.59;2113158;28;20042;-83
2024/03/19 03:20:19;;;;;;;14.75;0.80;;;;;;;3.38;100.00;93073.34;2107734;27;20020;-83
2024/03/19 03:21:20;;;;;;;0.60;0.60;;;;;;;3.54;100.00;93071.94;2107518;28;20097;-82
2024/03/19 03:22:21;;;;;;;7.15;0.70;;;;;;;3.51;100.00;93070.03;2108573;28;20125;-84
2024/03/19 03:23:22;;;;;;;2.47;0.60;;;;;;;3.60;100.00;93076.84;2112065;28;20050;-83
2024/03/19 03:24:23;;;;;;;5.35;0.80;;;;;;;3.56;100.00;93073.44;2122461;27;20110;-84
2024/03/19 03:25:24;;;;;;;0.85;0.85;;;;;;;3.55;100.00;93077.97;2123029;27;20481;-85
2024/03/19 03:26:25;;;;;;;0.70;0.70;;;;;;;3.63;100.00;93068.94;2112441;27;20024;-82
2024/03/19 03:27:27;;;;;;;2.53;1.10;;;;;;;3.54;100.00;93074.56;2115983;28;20068;-82
2024/03/19 03:28:28;;;;;;;0.73;0.73;;;;;;;3.39;100.00;93075.66;2103784;28;20075;-83
2024/03/19 03:29:29;;;;;;;1.92;1.40;;;;;;;3.45;100.00;93068.88;2116332;28;20065;-82
2024/03/19 03:30:30;;;;;;;2.30;0.95;;;;;;;3.45;100.00;93074.16;2107853;28;20012;-83
2024/03/19 03:31:32;;;;;;;12.65;1.10;;;;;;;3.57;100.00;93077.63;2106203;27;20043;-84
2024/03/19 03:32:33;;;;;;;46.08;1.73;;;;;;;3.60;100.00;93077.63;2104355;28;20058;-82
2024/03/19 03:33:34;;;;;;;8.82;1.00;;;;;;;3.46;100.00;93077.56;2112017;28;20350;-82
2024/03/19 03:34:35;;;;;;;8.57;1.58;;;;;;;3.25;100.00;93083.50;2115295;28;20057;-84
2024/03/19 03:35:38;;;;;;;8.50;1.08;;;;;;;3.41;100.00;93081.31;2111050;27;20082;-83
2024/03/19 03:36:39;;;;;;;13.23;1.08;;;;;;;3.35;100.00;93079.41;2120154;28;20016;-84
2024/03/19 03:37:41;;;;;;;13.35;0.90;;;;;;;3.44;100.00;93077.94;2106996;28;20073;-84
2024/03/19 03:38:42;;;;;;;15.20;1.00;;;;;;;3.45;100.00;93076.03;2092547;28;20055;-85
2024/03/19 03:39:44;;;;;;;17.48;1.00;;;;;;;3.47;100.00;93077.19;2107620;28;20516;-83
2024/03/19 03:40:46;;;;;;;25.13;1.30;;;;;;;3.57;100.00;93078.38;2106534;28;20543;-86
2024/03/19 03:41:47;;;;;;;27.90;1.10;;;;;;;3.58;100.00;93079.13;2100866;27;20016;-86
2024/03/19 03:42:48;;;;;;;23.67;1.45;;;;;;;3.71;100.00;93081.06;2100987;28;20020;-87
2024/03/19 03:43:49;;;;;;;29.20;1.50;;;;;;;3.79;100.00;93081.84;2101993;28;20029;-87
2024/03/19 03:44:50;;;;;;;36.72;1.52;;;;;;;3.58;100.00;93081.75;2097702;28;20377;-86
2024/03/19 03:45:51;;;;;;;4.68;0.95;;;;;;;3.65;100.00;93081.78;2098648;28;20024;-86
2024/03/19 03:46:52;;;;;;;11.70;1.20;;;;;;;3.73;100.00;93091.25;2100477;28;20498;-87
2024/03/19 03:47:53;;;;;;;20.42;1.20;;;;;;;3.58;100.00;93079.13;2116637;27;20117;-87
2024/03/19 03:48:54;;;;;;;8.65;1.10;;;;;;;3.70;100.00;93082.19;2114765;28;20443;-86
2024/03/19 03:49:56;;;;;;;14.57;1.30;;;;;;;3.66;100.00;93085.94;2106172;28;20097;-86
2024/03/19 03:50:56;;;;;;;26.90;1.30;;;;;;;3.48;100.00;93081.34;2099967;28;20028;-86
2024/03/19 03:51:57;;;;;;;16.33;1.33;;;;;;;3.59;100.00;93076.09;2109569;28;20049;-86
2024/03/19 03:52:58;;;;;;;33.92;1.60;;;;;;;3.60;100.00;93082.13;2092894;28;20029;-84
2024/03/19 03:53:59;;;;;;;51.17;1.58;;;;;;;3.57;100.00;93086.28;2103904;28;20132;-86
2024/03/19 03:55:02;;;;;;;40.28;1.80;;;;;;;3.42;100.00;93082.81;2113423;28;20018;-86
2024/03/19 03:56:03;;;;;;;24.52;1.40;;;;;;;3.31;100.00;93095.22;2106853;28;20027;-85
2024/03/19 03:57:04;;;;;;;21.00;1.13;;;;;;;3.54;100.00;93089.66;2102002;28;20020;-85
2024/03/19 03:58:05;;;;;;;25.98;1.23;;;;;;;3.58;100.00;93084.41;2091569;28;20017;-87
2024/03/19 03:59:06;;;;;;;19.52;1.35;;;;;;;3.52;100.00;93082.13;2112991;28;20114;-85
2024/03/19 04:00:10;;;;;;;14.05;1.20;;;;;;;3.46;100.00;93083.59;2118780;27;20015;-86
2024/03/19 04:01:11;;;;;;;12.93;1.05;;;;;;;3.52;100.00;93086.66;2106140;28;20024;-86
2024/03/19 04:02:11;;;;;;;26.52;1.27;;;;;;;3.45;100.00;93086.63;2097830;28;20374;-86
2024/03/19 04:03:15;;;;;;;16.63;1.20;;;;;;;3.46;100.00;93083.59;2098171;28;20021;-85
2024/03/19 04:04:16;;;;;;;26.27;1.40;;;;;;;3.55;100.00;93085.88;2106023;28;20050;-84
2024/03/19 04:05:17;;;;;;;11.13;1.75;;;;;;;3.53;100.00;93086.28;2113297;28;20019;-87
2024/03/19 04:06:18;;;;;;;14.00;1.20;;;;;;;3.48;100.00;93084.00;2114698;28;20031;-83
2024/03/19 04:07:19;;;;;;;42.90;2.20;;;;;;;3.65;100.00;93087.09;2100290;28;20326;-83
2024/03/19 04:08:20;;;;;;;8.02;1.10;;;;;;;3.73;100.00;93091.25;2114555;28;20023;-84
2024/03/19 04:09:21;;;;;;;14.82;1.08;;;;;;;3.76;100.00;93088.63;2117972;27;20045;-83
2024/03/19 04:10:22;;;;;;;26.83;1.33;;;;;;;3.76;100.00;93088.63;2104204;28;20414;-86
2024/03/19 04:11:23;;;;;;;27.83;1.48;;;;;;;3.61;100.00;93086.31;2098754;28;20032;-87
2024/03/19 04:12:24;;;;;;;43.83;2.53;;;;;;;3.56;100.00;93092.72;2093029;28;20021;-86
2024/03/19 04:13:25;;;;;;;61.13;1.77;;;;;;;3.61;100.00;93088.94;2091009;28;20024;-87
2024/03/19 04:14:26;;;;;;;53.92;1.45;;;;;;;3.70;100.00;93084.84;2094794;28;20028;-87
2024/03/19 04:15:27;;;;;;;42.28;1.70;;;;;;;3.53;100.00;93090.81;2106230;28;20028;-84
2024/03/19 04:16:29;;;;;;;51.25;1.42;;;;;;;3.36;100.00;93086.94;2114976;27;20417;-86
2024/03/19 04:17:30;;;;;;;50.25;1.90;;;;;;;3.45;100.00;93091.91;2110712;28;20032;-87
2024/03/19 04:18:32;;;;;;;40.45;1.50;;;;;;;3.47;100.00;93087.00;2101299;28;20058;-88
2024/03/19 04:19:33;;;;;;;38.75;1.42;;;;;;;3.38;100.00;93083.94;2110376;27;20079;-89
2024/03/19 04:20:34;;;;;;;33.53;2.38;;;;;;;3.43;100.00;93087.00;2106903;28;20492;-87
2024/03/19 04:21:35;;;;;;;45.10;2.80;;;;;;;3.29;100.00;93084.25;2100483;28;20376;-83
2024/03/19 04:22:38;;;;;;;40.53;1.50;;;;;;;3.19;100.00;93083.09;2093365;28;20092;-86
2024/03/19 04:23:39;;;;;;;10.50;1.00;;;;;;;3.26;100.00;93082.38;2100148;28;20024;-86
2024/03/19 04:24:40;;;;;;;15.75;0.85;;;;;;;3.30;100.00;93091.06;2097703;28;20016;-83
2024/03/19 04:25:41;;;;;;;15.23;1.10;;;;;;;3.29;100.00;93092.19;2099656;28;20016;-83
2024/03/19 04:26:42;;;;;;;24.35;1.20;;;;;;;3.07;100.00;93091.31;2105538;28;20052;-82
2024/03/19 04:27:43;;;;;;;7.20;0.80;;;;;;;3.10;100.00;93093.22;2108735;28;20111;-84
2024/03/19 04:28:44;;;;;;;2.05;0.60;;;;;;;3.03;100.00;93093.19;2097753;28;20096;-86
2024/03/19 04:29:47;;;;;;;10.13;1.08;;;;;;;3.09;100.00;93089.06;2100182;28;20043;-85
2024/03/19 04:30:48;;;;;;;12.65;1.15;;;;;;;3.08;100.00;93098.13;2092403;28;20016;-87
2024/03/19 04:31:49;;;;;;;22.20;1.52;;;;;;;3.09;100.00;93101.53;2097614;28;20018;-85
2024/03/19 04:32:50;;;;;;;16.50;0.90;;;;;;;3.18;100.00;93099.31;2095785;28;20048;-85
2024/03/19 04:33:51;;;;;;;26.70;1.15;;;;;;;3.22;100.00;93100.09;2106105;28;20693;-85
2024/03/19 04:34:52;;;;;;;18.38;1.77;;;;;;;3.32;100.00;93098.63;2114469;28;20034;-84
2024/03/19 04:35:53;;;;;;;37.17;1.30;;;;;;;3.25;100.00;93102.75;2110560;28;20016;-84
2024/03/19 04:36:54;;;;;;;47.47;1.30;;;;;;;3.16;100.00;93098.91;2106003;28;20052;-86
2024/03/19 04:37:55;;;;;;;45.58;1.33;;;;;;;3.12;100.00;93098.91;2089910;28;20032;-84
2024/03/19 04:38:56;;;;;;;26.52;1.02;;;;;;;3.04;100.00;93102.63;2097034;28;20048;-87
2024/03/19 04:39:57;;;;;;;41.65;1.20;;;;;;;2.84;100.00;93098.72;2099903;28;20114;-86
2024/03/19 04:40:58;;;;;;;17.98;0.80;;;;;;;2.84;100.00;93104.00;2101732;28;20020;-88
2024/03/19 04:41:59;;;;;;;10.55;0.80;;;;;;;2.96;100.00;93099.19;2104261;28;20035;-84
2024/03/19 04:43:00;;;;;;;25.38;0.80;;;;;;;3.03;100.00;93096.59;2107723;28;20050;-86
2024/03/19 04:44:01;;;;;;;40.90;1.80;;;;;;;2.84;100.00;93096.81;2091580;28;20514;-85
2024/03/19 04:45:02;;;;;;;16.15;0.70;;;;;;;2.96;100.00;93099.19;2098038;28;20111;-86
2024/03/19 04:46:03;;;;;;;2.20;0.50;;;;;;;3.01;100.00;93096.19;2114395;28;20058;-86
2024/03/19 04:47:05;;;;;;;13.05;0.82;;;;;;;2.86;100.00;93094.59;2102403;28;20028;-86
2024/03/19 04:48:06;;;;;;;15.40;0.88;;;;;;;3.08;100.00;93102.66;2089419;28;20490;-89
2024/03/19 04:49:07;;;;;;;4.22;0.50;;;;;;;3.13;100.00;93094.38;2089543;28;20047;-85